Share

Boulder, WY

Wenz (KPNA) Elev 7087 ft | 42.80 °N, 109.81 °W | Change Station

Current weather conditions updated 7 minutes ago

Overcast
Overcast
46 °F
Feels Like 40 °F
N
17
Wind Variable Wind from West
Gusts 29 mph
Sunrise 6:32 AM
Sunset 8:04 PM
Moon Waning Gibbous

Today is forecast to be Warmer than yesterday.

Pressure 29.98 in
Visibility 10.0 miles
Clouds Scattered Clouds 6500 ft
Mostly Cloudy 8000 ft
Overcast 9000 ft
Windchill 40 °F
Dew Point 32 °F
Humidity 57%
Rainfall 0.00 in
Snow Depth Not available.
UV 3 out of 16
Pollen 11.40 out of 12
Air Quality Not available.
Flu Activity Sporadic
METAR KPNA 182115Z AUTO 26015G25KT 10SM SCT065 BKN080 OVC090 08/00 A2998 RMK AO2

More Conditions Fewer Conditions

Pressure 29.98 in
Visibility 10.0 miles
Clouds Scattered Clouds 6500 ft
Mostly Cloudy 8000 ft
Overcast 9000 ft
Windchill 40 °F
Dew Point 32 °F
Humidity 57%
Rainfall 0.00 in
Snow Depth Not available.
UV 3 out of 16
Pollen 11.40 out of 12
Air Quality Not available.
Flu Activity Sporadic
METAR KPNA 182115Z AUTO 26015G25KT 10SM SCT065 BKN080 OVC090 08/00 A2998 RMK AO2

More Conditions Fewer Conditions

10-Day Weather Forecast

Almanac

Astronomy

Apr. 18, 2014 Rise Set
Actual Time 6:32 AM MDT 8:04 PM MDT
Civil Twilight 6:02 AM MDT 8:34 PM MDT
Nautical Twilight 5:27 AM MDT 9:10 PM MDT
Astronomical Twilight 4:48 AM MDT 9:48 PM MDT
Moon 11:56 PM MDT 8:54 AM MDT
Length of Visible Light 14h 31m
Length of Day
13h 32m
Tomorrow will be 2m 44s longer.
Waning Gibbous, 85% of the Moon is Illuminated
Today
Waning Gibbous
Apr 22
Last Quarter
Apr 29
New
May 6
First Quarter
May 14
Full

Today's Extremes

State Highs State Lows

Community

  • What's for Lunch?
    What's for Lunch?
  • SUNRISE THROUGH THE TREES.
    SUNRISE THROUGH THE TREES.
  • Dog Wood Blossoms
    Dog Wood Blossoms
  • Morning Light
    Morning Light
  • New Day
    New Day

WunderPhotos

Upload Photos

1,702,511 photos uploaded!

WunderBlogs® & News

Nearby

Snow Depth

Station Depth Elevation
Big Sandy Opening 45 in 9080 ft
New Fork Lake 38 in 8340 ft
East Rim Divide 40 in 7930 ft
Kendall R.S. 52 in 7740 ft
Townsend Creek 26 in 8700 ft

Coastal Water Temperatures

Place Temperature
No Stations Reporting

Earthquake Activity

City Distance Mag. Time & Date
No recent earthquake activity has been reported nearby.
Minimum magnitude displayed is 2.5.

Nearby Weather Stations

Station Location Temp. Windchill Dew Point Humidity Wind Precip. Elev Updated Type
APRSWXNET Pinedale WY , Pinedale, WY 42 °F 38 °F 33 °F 69% NW  at  6 mph 0.00 in / hr 7381 ft 3:01 PM MDT MADIS
Marbleton, WY 48.6 °F 44 °F 29 °F 47% SW  at  11.0 mph 0.00 in / hr 6873 ft 3:22 PM MDT Rapid Fire

Show More Stations Show Fewer Stations

What do you think?

We're not finished. Please let us know what you like, what you don't like, and what you are still missing.